<?xml version="1.0" encoding="UTF-8" standalone="no" ?>
<gpx xmlns="http://www.topografix.com/GPX/1/1" xmlns:xsi="http://www.w3.org/2001/XMLSchema-instance" xsi:schemaLocation="http://www.topografix.com/GPX/1/1 http://www.topografix.com/GPX/1/1/gpx.xsd" version="1.1" creator="VisuGPX - https://www.visugpx.com">
  <metadata>
    <name>sejour gov alsace</name>
  </metadata>
  <wpt lat="48.06424" lon="7.02221">
    <ele>1132</ele>
    <name><![CDATA[Col de la Schlucht]]></name>
    <desc><![CDATA[Parking]]></desc>
    <cmt><![CDATA[Parking]]></cmt>
  </wpt>
  <wpt lat="48.04158" lon="7.29947">
    <ele>223</ele>
    <name><![CDATA[Eguisheim]]></name>
  </wpt>
  <wpt lat="48.1793" lon="7.31018">
    <ele>275</ele>
    <name><![CDATA[Hunawihr]]></name>
  </wpt>
  <wpt lat="48.13923" lon="7.25933">
    <ele>251</ele>
    <name><![CDATA[Kaysersberg]]></name>
  </wpt>
  <wpt lat="48.14587" lon="7.25086">
    <ele>290</ele>
    <name><![CDATA[Kaysersberg-CCAS]]></name>
    <desc><![CDATA[3 Rue Rene le Guen]]></desc>
    <cmt><![CDATA[3 Rue Rene le Guen]]></cmt>
  </wpt>
  <wpt lat="48.14668" lon="7.25549">
    <ele>261</ele>
    <name><![CDATA[Kaysersberg-Salle de Sport]]></name>
  </wpt>
  <wpt lat="48.11261" lon="7.10019">
    <ele>958</ele>
    <name><![CDATA[Lac Noir]]></name>
  </wpt>
  <wpt lat="48.17" lon="7.12576">
    <ele>667</ele>
    <name><![CDATA[Le Bonhomme]]></name>
  </wpt>
  <wpt lat="48.05292" lon="6.9482">
    <ele>918</ele>
    <name><![CDATA[Lispach]]></name>
  </wpt>
  <wpt lat="48.16758" lon="7.29424">
    <ele>321</ele>
    <name><![CDATA[Riquewihr]]></name>
  </wpt>
  <wpt lat="48.23274" lon="7.36606">
    <ele>254</ele>
    <name><![CDATA[St-Hippolyte]]></name>
  </wpt>
  <wpt lat="48.22694" lon="7.30439">
    <ele>466</ele>
    <name><![CDATA[Thannenkirch]]></name>
  </wpt>
  <trk>
    <name><![CDATA[04A-Hunawihr-Riquewihr (12,9 Km & 530 m)]]></name>
    <trkseg>
      <trkpt lat="48.1793" lon="7.31018">
        <ele>275</ele>
        <time>2019-01-20T08:51:03Z</time>
      </trkpt>
      <trkpt lat="48.17923" lon="7.30984">
        <ele>277</ele>
        <time>2019-01-20T09:07:05Z</time>
      </trkpt>
      <trkpt lat="48.17911" lon="7.30958">
        <ele>279</ele>
        <time>2019-01-20T09:09:49Z</time>
      </trkpt>
      <trkpt lat="48.17924" lon="7.30929">
        <ele>279</ele>
        <time>2019-01-20T09:10:46Z</time>
      </trkpt>
      <trkpt lat="48.17941" lon="7.30916">
        <ele>279</ele>
        <time>2019-01-20T09:11:17Z</time>
      </trkpt>
      <trkpt lat="48.17948" lon="7.30883">
        <ele>280</ele>
        <time>2019-01-20T09:11:45Z</time>
      </trkpt>
      <trkpt lat="48.17956" lon="7.30849">
        <ele>282</ele>
        <time>2019-01-20T09:12:07Z</time>
      </trkpt>
      <trkpt lat="48.1796" lon="7.30817">
        <ele>284</ele>
        <time>2019-01-20T09:12:25Z</time>
      </trkpt>
      <trkpt lat="48.17964" lon="7.30781">
        <ele>286</ele>
        <time>2019-01-20T09:12:45Z</time>
      </trkpt>
      <trkpt lat="48.17966" lon="7.30747">
        <ele>288</ele>
        <time>2019-01-20T09:13:05Z</time>
      </trkpt>
      <trkpt lat="48.17968" lon="7.30713">
        <ele>289</ele>
        <time>2019-01-20T09:13:24Z</time>
      </trkpt>
      <trkpt lat="48.17968" lon="7.30687">
        <ele>290</ele>
        <time>2019-01-20T09:13:48Z</time>
      </trkpt>
      <trkpt lat="48.17968" lon="7.30653">
        <ele>292</ele>
        <time>2019-01-20T09:14:18Z</time>
      </trkpt>
      <trkpt lat="48.17967" lon="7.30619">
        <ele>295</ele>
        <time>2019-01-20T09:14:38Z</time>
      </trkpt>
      <trkpt lat="48.17966" lon="7.30585">
        <ele>298</ele>
        <time>2019-01-20T09:14:58Z</time>
      </trkpt>
      <trkpt lat="48.17963" lon="7.30551">
        <ele>300</ele>
        <time>2019-01-20T09:15:19Z</time>
      </trkpt>
      <trkpt lat="48.17962" lon="7.30515">
        <ele>303</ele>
        <time>2019-01-20T09:15:42Z</time>
      </trkpt>
      <trkpt lat="48.17959" lon="7.30481">
        <ele>306</ele>
        <time>2019-01-20T09:16:10Z</time>
      </trkpt>
      <trkpt lat="48.17955" lon="7.30449">
        <ele>308</ele>
        <time>2019-01-20T09:16:33Z</time>
      </trkpt>
      <trkpt lat="48.17951" lon="7.30414">
        <ele>311</ele>
        <time>2019-01-20T09:16:55Z</time>
      </trkpt>
      <trkpt lat="48.17946" lon="7.30377">
        <ele>314</ele>
        <time>2019-01-20T09:17:15Z</time>
      </trkpt>
      <trkpt lat="48.17944" lon="7.30346">
        <ele>316</ele>
        <time>2019-01-20T09:17:37Z</time>
      </trkpt>
      <trkpt lat="48.17952" lon="7.30313">
        <ele>319</ele>
        <time>2019-01-20T09:18:03Z</time>
      </trkpt>
      <trkpt lat="48.17962" lon="7.30283">
        <ele>323</ele>
        <time>2019-01-20T09:18:28Z</time>
      </trkpt>
      <trkpt lat="48.17966" lon="7.3025">
        <ele>326</ele>
        <time>2019-01-20T09:18:53Z</time>
      </trkpt>
      <trkpt lat="48.17967" lon="7.30214">
        <ele>327</ele>
        <time>2019-01-20T09:19:17Z</time>
      </trkpt>
      <trkpt lat="48.17968" lon="7.3018">
        <ele>328</ele>
        <time>2019-01-20T09:19:39Z</time>
      </trkpt>
      <trkpt lat="48.1797" lon="7.30145">
        <ele>330</ele>
        <time>2019-01-20T09:20:00Z</time>
      </trkpt>
      <trkpt lat="48.17974" lon="7.30114">
        <ele>332</ele>
        <time>2019-01-20T09:20:22Z</time>
      </trkpt>
      <trkpt lat="48.17994" lon="7.30098">
        <ele>333</ele>
        <time>2019-01-20T09:21:40Z</time>
      </trkpt>
      <trkpt lat="48.18013" lon="7.30084">
        <ele>336</ele>
        <time>2019-01-20T09:22:00Z</time>
      </trkpt>
      <trkpt lat="48.18027" lon="7.30063">
        <ele>341</ele>
        <time>2019-01-20T09:22:23Z</time>
      </trkpt>
      <trkpt lat="48.18053" lon="7.30069">
        <ele>345</ele>
        <time>2019-01-20T09:22:47Z</time>
      </trkpt>
      <trkpt lat="48.18075" lon="7.30082">
        <ele>348</ele>
        <time>2019-01-20T09:23:22Z</time>
      </trkpt>
      <trkpt lat="48.18092" lon="7.30113">
        <ele>352</ele>
        <time>2019-01-20T09:23:47Z</time>
      </trkpt>
      <trkpt lat="48.181" lon="7.30111">
        <ele>354</ele>
        <time>2021-04-27T06:58:23Z</time>
      </trkpt>
      <trkpt lat="48.18108" lon="7.30083">
        <ele>358</ele>
        <time>2019-01-20T09:24:18Z</time>
      </trkpt>
      <trkpt lat="48.18114" lon="7.30055">
        <ele>363</ele>
        <time>2019-01-20T09:25:10Z</time>
      </trkpt>
      <trkpt lat="48.18133" lon="7.30054">
        <ele>370</ele>
        <time>2019-01-20T09:26:30Z</time>
      </trkpt>
      <trkpt lat="48.18145" lon="7.30079">
        <ele>372</ele>
        <time>2019-01-20T09:27:01Z</time>
      </trkpt>
      <trkpt lat="48.18161" lon="7.30104">
        <ele>376</ele>
        <time>2019-01-20T09:27:27Z</time>
      </trkpt>
      <trkpt lat="48.18177" lon="7.30128">
        <ele>379</ele>
        <time>2019-01-20T09:27:54Z</time>
      </trkpt>
      <trkpt lat="48.18193" lon="7.30154">
        <ele>382</ele>
        <time>2019-01-20T09:28:25Z</time>
      </trkpt>
      <trkpt lat="48.18203" lon="7.30123">
        <ele>387</ele>
        <time>2019-01-20T09:33:10Z</time>
      </trkpt>
      <trkpt lat="48.182" lon="7.30088">
        <ele>389</ele>
        <time>2019-01-20T09:33:34Z</time>
      </trkpt>
      <trkpt lat="48.18201" lon="7.30053">
        <ele>392</ele>
        <time>2019-01-20T09:33:57Z</time>
      </trkpt>
      <trkpt lat="48.18213" lon="7.30015">
        <ele>399</ele>
        <time>2019-01-20T09:34:22Z</time>
      </trkpt>
      <trkpt lat="48.18213" lon="7.29984">
        <ele>403</ele>
        <time>2019-01-20T09:34:49Z</time>
      </trkpt>
      <trkpt lat="48.18212" lon="7.29951">
        <ele>408</ele>
        <time>2019-01-20T09:35:16Z</time>
      </trkpt>
      <trkpt lat="48.18197" lon="7.29931">
        <ele>407</ele>
        <time>2019-01-20T09:35:43Z</time>
      </trkpt>
      <trkpt lat="48.18185" lon="7.29911">
        <ele>407</ele>
        <time>2019-01-20T09:36:07Z</time>
      </trkpt>
      <trkpt lat="48.18178" lon="7.29881">
        <ele>409</ele>
        <time>2019-01-20T09:36:31Z</time>
      </trkpt>
      <trkpt lat="48.18174" lon="7.29842">
        <ele>413</ele>
        <time>2019-01-20T09:36:56Z</time>
      </trkpt>
      <trkpt lat="48.18175" lon="7.29809">
        <ele>414</ele>
        <time>2019-01-20T09:37:19Z</time>
      </trkpt>
      <trkpt lat="48.18178" lon="7.29771">
        <ele>414</ele>
        <time>2019-01-20T09:37:43Z</time>
      </trkpt>
      <trkpt lat="48.18192" lon="7.29746">
        <ele>417</ele>
        <time>2019-01-20T09:38:08Z</time>
      </trkpt>
      <trkpt lat="48.18208" lon="7.29723">
        <ele>422</ele>
        <time>2019-01-20T09:38:31Z</time>
      </trkpt>
      <trkpt lat="48.18225" lon="7.29695">
        <ele>426</ele>
        <time>2019-01-20T09:38:55Z</time>
      </trkpt>
      <trkpt lat="48.18241" lon="7.29666">
        <ele>431</ele>
        <time>2019-01-20T09:39:21Z</time>
      </trkpt>
      <trkpt lat="48.18246" lon="7.29702">
        <ele>433</ele>
        <time>2019-01-20T09:41:56Z</time>
      </trkpt>
      <trkpt lat="48.18254" lon="7.29735">
        <ele>435</ele>
        <time>2019-01-20T09:42:22Z</time>
      </trkpt>
      <trkpt lat="48.18265" lon="7.29762">
        <ele>438</ele>
        <time>2019-01-20T09:42:48Z</time>
      </trkpt>
      <trkpt lat="48.18277" lon="7.29789">
        <ele>440</ele>
        <time>2019-01-20T09:43:14Z</time>
      </trkpt>
      <trkpt lat="48.1829" lon="7.29817">
        <ele>442</ele>
        <time>2019-01-20T09:43:36Z</time>
      </trkpt>
      <trkpt lat="48.18307" lon="7.29843">
        <ele>443</ele>
        <time>2019-01-20T09:43:57Z</time>
      </trkpt>
      <trkpt lat="48.18321" lon="7.29866">
        <ele>444</ele>
        <time>2019-01-20T09:44:15Z</time>
      </trkpt>
      <trkpt lat="48.18338" lon="7.2989">
        <ele>445</ele>
        <time>2019-01-20T09:44:35Z</time>
      </trkpt>
      <trkpt lat="48.18353" lon="7.29916">
        <ele>446</ele>
        <time>2019-01-20T09:44:55Z</time>
      </trkpt>
      <trkpt lat="48.18367" lon="7.29943">
        <ele>447</ele>
        <time>2019-01-20T09:46:23Z</time>
      </trkpt>
      <trkpt lat="48.18382" lon="7.29973">
        <ele>446</ele>
        <time>2019-01-20T09:46:48Z</time>
      </trkpt>
      <trkpt lat="48.18401" lon="7.29993">
        <ele>447</ele>
        <time>2019-01-20T09:46:58Z</time>
      </trkpt>
      <trkpt lat="48.1842" lon="7.30012">
        <ele>447</ele>
        <time>2019-01-20T09:47:11Z</time>
      </trkpt>
      <trkpt lat="48.1844" lon="7.30029">
        <ele>447</ele>
        <time>2019-01-20T09:47:28Z</time>
      </trkpt>
      <trkpt lat="48.18459" lon="7.30046">
        <ele>446</ele>
        <time>2019-01-20T09:47:49Z</time>
      </trkpt>
      <trkpt lat="48.18479" lon="7.30063">
        <ele>446</ele>
        <time>2019-01-20T09:48:13Z</time>
      </trkpt>
      <trkpt lat="48.185" lon="7.30079">
        <ele>446</ele>
        <time>2019-01-20T09:48:31Z</time>
      </trkpt>
      <trkpt lat="48.18524" lon="7.30084">
        <ele>445</ele>
        <time>2019-01-20T09:48:50Z</time>
      </trkpt>
      <trkpt lat="48.18548" lon="7.30088">
        <ele>445</ele>
        <time>2019-01-20T09:49:12Z</time>
      </trkpt>
      <trkpt lat="48.1857" lon="7.30077">
        <ele>447</ele>
        <time>2019-01-20T09:49:37Z</time>
      </trkpt>
      <trkpt lat="48.18591" lon="7.30053">
        <ele>449</ele>
        <time>2019-01-20T09:49:56Z</time>
      </trkpt>
      <trkpt lat="48.18609" lon="7.30027">
        <ele>449</ele>
        <time>2019-01-20T09:50:14Z</time>
      </trkpt>
      <trkpt lat="48.18623" lon="7.29997">
        <ele>450</ele>
        <time>2019-01-20T09:50:36Z</time>
      </trkpt>
      <trkpt lat="48.18637" lon="7.29971">
        <ele>450</ele>
        <time>2019-01-20T09:50:57Z</time>
      </trkpt>
      <trkpt lat="48.18655" lon="7.29938">
        <ele>448</ele>
        <time>2019-01-20T09:51:18Z</time>
      </trkpt>
      <trkpt lat="48.18664" lon="7.29915">
        <ele>446</ele>
        <time>2019-01-20T09:51:41Z</time>
      </trkpt>
      <trkpt lat="48.18674" lon="7.29883">
        <ele>446</ele>
        <time>2019-01-20T09:54:10Z</time>
      </trkpt>
      <trkpt lat="48.1868" lon="7.29851">
        <ele>447</ele>
        <time>2019-01-20T09:54:32Z</time>
      </trkpt>
      <trkpt lat="48.18687" lon="7.29814">
        <ele>449</ele>
        <time>2019-01-20T09:54:55Z</time>
      </trkpt>
      <trkpt lat="48.18691" lon="7.29787">
        <ele>451</ele>
        <time>2019-01-20T09:55:25Z</time>
      </trkpt>
      <trkpt lat="48.18694" lon="7.29759">
        <ele>453</ele>
        <time>2019-01-20T09:56:58Z</time>
      </trkpt>
      <trkpt lat="48.18691" lon="7.29723">
        <ele>456</ele>
        <time>2019-01-20T09:57:19Z</time>
      </trkpt>
      <trkpt lat="48.18686" lon="7.29691">
        <ele>458</ele>
        <time>2019-01-20T09:57:44Z</time>
      </trkpt>
      <trkpt lat="48.18681" lon="7.29657">
        <ele>462</ele>
        <time>2019-01-20T09:58:03Z</time>
      </trkpt>
      <trkpt lat="48.1868" lon="7.29623">
        <ele>468</ele>
        <time>2019-01-20T09:58:19Z</time>
      </trkpt>
      <trkpt lat="48.18696" lon="7.29599">
        <ele>469</ele>
        <time>2019-01-20T09:58:42Z</time>
      </trkpt>
      <trkpt lat="48.18718" lon="7.29592">
        <ele>467</ele>
        <time>2019-01-20T09:59:07Z</time>
      </trkpt>
      <trkpt lat="48.18742" lon="7.29583">
        <ele>465</ele>
        <time>2019-01-20T09:59:26Z</time>
      </trkpt>
      <trkpt lat="48.18763" lon="7.29569">
        <ele>465</ele>
        <time>2019-01-20T09:59:49Z</time>
      </trkpt>
      <trkpt lat="48.1878" lon="7.29545">
        <ele>467</ele>
        <time>2019-01-20T10:00:10Z</time>
      </trkpt>
      <trkpt lat="48.18797" lon="7.29522">
        <ele>469</ele>
        <time>2019-01-20T10:00:32Z</time>
      </trkpt>
      <trkpt lat="48.18813" lon="7.29497">
        <ele>471</ele>
        <time>2019-01-20T10:00:49Z</time>
      </trkpt>
      <trkpt lat="48.18822" lon="7.29487">
        <ele>469</ele>
        <time>2021-04-27T07:03:53Z</time>
      </trkpt>
      <trkpt lat="48.18823" lon="7.29469">
        <ele>470</ele>
        <time>2019-01-20T10:01:10Z</time>
      </trkpt>
      <trkpt lat="48.18827" lon="7.29429">
        <ele>471</ele>
        <time>2019-01-20T10:01:34Z</time>
      </trkpt>
      <trkpt lat="48.18828" lon="7.29396">
        <ele>471</ele>
        <time>2019-01-20T10:01:55Z</time>
      </trkpt>
      <trkpt lat="48.18826" lon="7.29361">
        <ele>470</ele>
        <time>2019-01-20T10:02:13Z</time>
      </trkpt>
      <trkpt lat="48.18817" lon="7.2933">
        <ele>473</ele>
        <time>2019-01-20T10:02:37Z</time>
      </trkpt>
      <trkpt lat="48.18803" lon="7.29301">
        <ele>476</ele>
        <time>2019-01-20T10:02:56Z</time>
      </trkpt>
      <trkpt lat="48.18789" lon="7.29272">
        <ele>480</ele>
        <time>2019-01-20T10:03:17Z</time>
      </trkpt>
      <trkpt lat="48.18772" lon="7.29248">
        <ele>485</ele>
        <time>2019-01-20T10:03:38Z</time>
      </trkpt>
      <trkpt lat="48.18756" lon="7.29223">
        <ele>488</ele>
        <time>2019-01-20T10:04:00Z</time>
      </trkpt>
      <trkpt lat="48.18743" lon="7.29193">
        <ele>488</ele>
        <time>2019-01-20T10:04:23Z</time>
      </trkpt>
      <trkpt lat="48.18732" lon="7.29166">
        <ele>488</ele>
        <time>2019-01-20T10:04:41Z</time>
      </trkpt>
      <trkpt lat="48.18719" lon="7.29135">
        <ele>492</ele>
        <time>2019-01-20T10:05:00Z</time>
      </trkpt>
      <trkpt lat="48.18706" lon="7.29109">
        <ele>496</ele>
        <time>2019-01-20T10:05:21Z</time>
      </trkpt>
      <trkpt lat="48.18696" lon="7.29076">
        <ele>498</ele>
        <time>2019-01-20T10:05:40Z</time>
      </trkpt>
      <trkpt lat="48.1869" lon="7.29046">
        <ele>499</ele>
        <time>2019-01-20T10:06:01Z</time>
      </trkpt>
      <trkpt lat="48.18684" lon="7.29012">
        <ele>499</ele>
        <time>2019-01-20T10:06:22Z</time>
      </trkpt>
      <trkpt lat="48.18681" lon="7.28977">
        <ele>499</ele>
        <time>2019-01-20T10:06:40Z</time>
      </trkpt>
      <trkpt lat="48.18683" lon="7.28944">
        <ele>500</ele>
        <time>2019-01-20T10:07:01Z</time>
      </trkpt>
      <trkpt lat="48.18685" lon="7.28906">
        <ele>503</ele>
        <time>2019-01-20T10:07:26Z</time>
      </trkpt>
      <trkpt lat="48.18685" lon="7.28869">
        <ele>508</ele>
        <time>2019-01-20T10:07:53Z</time>
      </trkpt>
      <trkpt lat="48.18701" lon="7.28861">
        <ele>512</ele>
        <time>2019-01-20T10:09:12Z</time>
      </trkpt>
      <trkpt lat="48.18725" lon="7.28865">
        <ele>514</ele>
        <time>2019-01-20T10:09:45Z</time>
      </trkpt>
      <trkpt lat="48.18747" lon="7.28876">
        <ele>514</ele>
        <time>2019-01-20T10:10:34Z</time>
      </trkpt>
      <trkpt lat="48.18767" lon="7.2889">
        <ele>518</ele>
        <time>2019-01-20T10:11:02Z</time>
      </trkpt>
      <trkpt lat="48.18787" lon="7.28908">
        <ele>521</ele>
        <time>2019-01-20T10:11:32Z</time>
      </trkpt>
      <trkpt lat="48.18807" lon="7.28929">
        <ele>522</ele>
        <time>2019-01-20T10:11:56Z</time>
      </trkpt>
      <trkpt lat="48.18832" lon="7.28936">
        <ele>528</ele>
        <time>2019-01-20T10:12:28Z</time>
      </trkpt>
      <trkpt lat="48.18854" lon="7.28942">
        <ele>530</ele>
        <time>2019-01-20T10:13:14Z</time>
      </trkpt>
      <trkpt lat="48.18878" lon="7.28945">
        <ele>534</ele>
        <time>2019-01-20T10:13:47Z</time>
      </trkpt>
      <trkpt lat="48.18899" lon="7.28948">
        <ele>537</ele>
        <time>2019-01-20T10:14:20Z</time>
      </trkpt>
      <trkpt lat="48.18922" lon="7.28949">
        <ele>540</ele>
        <time>2019-01-20T10:18:23Z</time>
      </trkpt>
      <trkpt lat="48.18944" lon="7.2894">
        <ele>544</ele>
        <time>2019-01-20T10:18:47Z</time>
      </trkpt>
      <trkpt lat="48.18923" lon="7.28922">
        <ele>550</ele>
        <time>2019-01-20T10:20:59Z</time>
      </trkpt>
      <trkpt lat="48.1891" lon="7.28903">
        <ele>555</ele>
        <time>2019-01-20T10:21:31Z</time>
      </trkpt>
      <trkpt lat="48.18899" lon="7.28864">
        <ele>563</ele>
        <time>2019-01-20T10:22:10Z</time>
      </trkpt>
      <trkpt lat="48.1889" lon="7.28834">
        <ele>569</ele>
        <time>2019-01-20T10:22:49Z</time>
      </trkpt>
      <trkpt lat="48.18878" lon="7.28788">
        <ele>576</ele>
        <time>2019-01-20T10:23:30Z</time>
      </trkpt>
      <trkpt lat="48.18896" lon="7.28788">
        <ele>581</ele>
        <time>2021-04-27T07:07:03Z</time>
      </trkpt>
      <trkpt lat="48.18912" lon="7.28796">
        <ele>583</ele>
        <time>2019-01-20T10:24:29Z</time>
      </trkpt>
      <trkpt lat="48.18933" lon="7.2881">
        <ele>582</ele>
        <time>2019-01-20T10:25:23Z</time>
      </trkpt>
      <trkpt lat="48.18958" lon="7.28813">
        <ele>581</ele>
        <time>2019-01-20T10:26:00Z</time>
      </trkpt>
      <trkpt lat="48.18969" lon="7.2881">
        <ele>582</ele>
        <time>2021-04-27T07:07:23Z</time>
      </trkpt>
      <trkpt lat="48.18965" lon="7.28786">
        <ele>586</ele>
        <time>2019-01-20T10:27:03Z</time>
      </trkpt>
      <trkpt lat="48.1896" lon="7.28758">
        <ele>591</ele>
        <time>2019-01-20T10:27:44Z</time>
      </trkpt>
      <trkpt lat="48.18953" lon="7.28722">
        <ele>596</ele>
        <time>2019-01-20T10:33:16Z</time>
      </trkpt>
      <trkpt lat="48.18942" lon="7.2869">
        <ele>599</ele>
        <time>2019-01-20T10:35:47Z</time>
      </trkpt>
      <trkpt lat="48.18933" lon="7.28657">
        <ele>603</ele>
        <time>2019-01-20T10:36:23Z</time>
      </trkpt>
      <trkpt lat="48.18925" lon="7.28634">
        <ele>606</ele>
        <time>2019-01-20T10:36:42Z</time>
      </trkpt>
      <trkpt lat="48.18913" lon="7.28604">
        <ele>609</ele>
        <time>2019-01-20T10:37:00Z</time>
      </trkpt>
      <trkpt lat="48.18901" lon="7.28574">
        <ele>611</ele>
        <time>2019-01-20T10:37:22Z</time>
      </trkpt>
      <trkpt lat="48.18888" lon="7.28545">
        <ele>615</ele>
        <time>2019-01-20T10:37:53Z</time>
      </trkpt>
      <trkpt lat="48.18876" lon="7.28518">
        <ele>619</ele>
        <time>2019-01-20T10:38:26Z</time>
      </trkpt>
      <trkpt lat="48.18862" lon="7.28491">
        <ele>624</ele>
        <time>2019-01-20T10:39:04Z</time>
      </trkpt>
      <trkpt lat="48.1885" lon="7.28467">
        <ele>629</ele>
        <time>2019-01-20T10:39:38Z</time>
      </trkpt>
      <trkpt lat="48.1883" lon="7.28441">
        <ele>637</ele>
        <time>2019-01-20T10:40:10Z</time>
      </trkpt>
      <trkpt lat="48.18817" lon="7.2842">
        <ele>642</ele>
        <time>2021-04-27T07:08:33Z</time>
      </trkpt>
      <trkpt lat="48.188" lon="7.28406">
        <ele>645</ele>
        <time>2019-01-20T10:42:08Z</time>
      </trkpt>
      <trkpt lat="48.18822" lon="7.28377">
        <ele>649</ele>
        <time>2019-01-20T10:42:52Z</time>
      </trkpt>
      <trkpt lat="48.18799" lon="7.28375">
        <ele>650</ele>
        <time>2019-01-20T10:43:41Z</time>
      </trkpt>
      <trkpt lat="48.18814" lon="7.28318">
        <ele>658</ele>
        <time>2019-01-20T10:44:32Z</time>
      </trkpt>
      <trkpt lat="48.18821" lon="7.28286">
        <ele>663</ele>
        <time>2019-01-20T10:45:12Z</time>
      </trkpt>
      <trkpt lat="48.18826" lon="7.28252">
        <ele>667</ele>
        <time>2019-01-20T10:45:37Z</time>
      </trkpt>
      <trkpt lat="48.18829" lon="7.28218">
        <ele>672</ele>
        <time>2019-01-20T10:46:06Z</time>
      </trkpt>
      <trkpt lat="48.18835" lon="7.28185">
        <ele>675</ele>
        <time>2019-01-20T10:50:58Z</time>
      </trkpt>
      <trkpt lat="48.1884" lon="7.28143">
        <ele>680</ele>
        <time>2019-01-20T10:51:18Z</time>
      </trkpt>
      <trkpt lat="48.18847" lon="7.28112">
        <ele>684</ele>
        <time>2019-01-20T10:51:40Z</time>
      </trkpt>
      <trkpt lat="48.18869" lon="7.28083">
        <ele>686</ele>
        <time>2019-01-20T10:51:59Z</time>
      </trkpt>
      <trkpt lat="48.18888" lon="7.28061">
        <ele>684</ele>
        <time>2019-01-20T10:52:19Z</time>
      </trkpt>
      <trkpt lat="48.18907" lon="7.28038">
        <ele>683</ele>
        <time>2019-01-20T10:52:40Z</time>
      </trkpt>
      <trkpt lat="48.18929" lon="7.28013">
        <ele>681</ele>
        <time>2019-01-20T10:53:08Z</time>
      </trkpt>
      <trkpt lat="48.18935" lon="7.27992">
        <ele>681</ele>
        <time>2019-01-20T10:53:24Z</time>
      </trkpt>
      <trkpt lat="48.18933" lon="7.27965">
        <ele>682</ele>
        <time>2019-01-20T10:54:05Z</time>
      </trkpt>
      <trkpt lat="48.18925" lon="7.27938">
        <ele>683</ele>
        <time>2019-01-20T10:54:25Z</time>
      </trkpt>
      <trkpt lat="48.18911" lon="7.2791">
        <ele>685</ele>
        <time>2019-01-20T10:54:47Z</time>
      </trkpt>
      <trkpt lat="48.18899" lon="7.27894">
        <ele>686</ele>
        <time>2019-01-20T10:55:10Z</time>
      </trkpt>
      <trkpt lat="48.1888" lon="7.2786">
        <ele>687</ele>
        <time>2019-01-20T10:55:31Z</time>
      </trkpt>
      <trkpt lat="48.18868" lon="7.27833">
        <ele>688</ele>
        <time>2019-01-20T10:55:57Z</time>
      </trkpt>
      <trkpt lat="48.18839" lon="7.27803">
        <ele>690</ele>
        <time>2019-01-20T10:56:15Z</time>
      </trkpt>
      <trkpt lat="48.18812" lon="7.27803">
        <ele>692</ele>
        <time>2019-01-20T10:56:40Z</time>
      </trkpt>
      <trkpt lat="48.18803" lon="7.27779">
        <ele>692</ele>
        <time>2019-01-20T10:58:39Z</time>
      </trkpt>
      <trkpt lat="48.1879" lon="7.27759">
        <ele>692</ele>
        <time>2019-01-20T10:59:02Z</time>
      </trkpt>
      <trkpt lat="48.18778" lon="7.27738">
        <ele>692</ele>
        <time>2019-01-20T10:59:29Z</time>
      </trkpt>
      <trkpt lat="48.18764" lon="7.27709">
        <ele>693</ele>
        <time>2019-01-20T10:59:52Z</time>
      </trkpt>
      <trkpt lat="48.18751" lon="7.27682">
        <ele>693</ele>
        <time>2019-01-20T11:00:15Z</time>
      </trkpt>
      <trkpt lat="48.18738" lon="7.27653">
        <ele>692</ele>
        <time>2019-01-20T11:00:34Z</time>
      </trkpt>
      <trkpt lat="48.18724" lon="7.27624">
        <ele>689</ele>
        <time>2019-01-20T11:00:55Z</time>
      </trkpt>
      <trkpt lat="48.18716" lon="7.27594">
        <ele>687</ele>
        <time>2019-01-20T11:01:19Z</time>
      </trkpt>
      <trkpt lat="48.18724" lon="7.27557">
        <ele>685</ele>
        <time>2019-01-20T11:01:50Z</time>
      </trkpt>
      <trkpt lat="48.18731" lon="7.27524">
        <ele>683</ele>
        <time>2019-01-20T11:02:13Z</time>
      </trkpt>
      <trkpt lat="48.1874" lon="7.27491">
        <ele>682</ele>
        <time>2019-01-20T11:02:42Z</time>
      </trkpt>
      <trkpt lat="48.18747" lon="7.27455">
        <ele>682</ele>
        <time>2019-01-20T11:03:00Z</time>
      </trkpt>
      <trkpt lat="48.18757" lon="7.27424">
        <ele>681</ele>
        <time>2019-01-20T11:03:24Z</time>
      </trkpt>
      <trkpt lat="48.1877" lon="7.27389">
        <ele>678</ele>
        <time>2019-01-20T11:03:45Z</time>
      </trkpt>
      <trkpt lat="48.18778" lon="7.2736">
        <ele>676</ele>
        <time>2019-01-20T11:06:05Z</time>
      </trkpt>
      <trkpt lat="48.18778" lon="7.27326">
        <ele>675</ele>
        <time>2019-01-20T11:07:40Z</time>
      </trkpt>
      <trkpt lat="48.18779" lon="7.27296">
        <ele>675</ele>
        <time>2019-01-20T11:08:07Z</time>
      </trkpt>
      <trkpt lat="48.1878" lon="7.27258">
        <ele>676</ele>
        <time>2019-01-20T11:08:27Z</time>
      </trkpt>
      <trkpt lat="48.18782" lon="7.27221">
        <ele>676</ele>
        <time>2019-01-20T11:08:49Z</time>
      </trkpt>
      <trkpt lat="48.18787" lon="7.27183">
        <ele>676</ele>
        <time>2019-01-20T11:09:09Z</time>
      </trkpt>
      <trkpt lat="48.18792" lon="7.27148">
        <ele>675</ele>
        <time>2019-01-20T11:09:36Z</time>
      </trkpt>
      <trkpt lat="48.18796" lon="7.27112">
        <ele>675</ele>
        <time>2019-01-20T11:09:58Z</time>
      </trkpt>
      <trkpt lat="48.18803" lon="7.27084">
        <ele>676</ele>
        <time>2019-01-20T11:10:21Z</time>
      </trkpt>
      <trkpt lat="48.18813" lon="7.2705">
        <ele>677</ele>
        <time>2019-01-20T12:09:16Z</time>
      </trkpt>
      <trkpt lat="48.18815" lon="7.27023">
        <ele>678</ele>
        <time>2019-01-20T12:10:05Z</time>
      </trkpt>
      <trkpt lat="48.18817" lon="7.26981">
        <ele>680</ele>
        <time>2019-01-20T12:10:59Z</time>
      </trkpt>
      <trkpt lat="48.18817" lon="7.26955">
        <ele>682</ele>
        <time>2019-01-20T12:11:23Z</time>
      </trkpt>
      <trkpt lat="48.18827" lon="7.26934">
        <ele>684</ele>
        <time>2019-01-20T12:13:19Z</time>
      </trkpt>
      <trkpt lat="48.18837" lon="7.26904">
        <ele>687</ele>
        <time>2019-01-20T12:13:43Z</time>
      </trkpt>
      <trkpt lat="48.18844" lon="7.26868">
        <ele>689</ele>
        <time>2019-01-20T12:14:08Z</time>
      </trkpt>
      <trkpt lat="48.18849" lon="7.26831">
        <ele>693</ele>
        <time>2019-01-20T12:14:32Z</time>
      </trkpt>
      <trkpt lat="48.18853" lon="7.26797">
        <ele>696</ele>
        <time>2019-01-20T12:14:54Z</time>
      </trkpt>
      <trkpt lat="48.18857" lon="7.26762">
        <ele>699</ele>
        <time>2019-01-20T12:15:12Z</time>
      </trkpt>
      <trkpt lat="48.18868" lon="7.26734">
        <ele>703</ele>
        <time>2019-01-20T12:15:38Z</time>
      </trkpt>
      <trkpt lat="48.18891" lon="7.26719">
        <ele>706</ele>
        <time>2019-01-20T12:16:05Z</time>
      </trkpt>
      <trkpt lat="48.18914" lon="7.26705">
        <ele>711</ele>
        <time>2019-01-20T12:16:36Z</time>
      </trkpt>
      <trkpt lat="48.18935" lon="7.26691">
        <ele>716</ele>
        <time>2019-01-20T12:17:03Z</time>
      </trkpt>
      <trkpt lat="48.18956" lon="7.26677">
        <ele>722</ele>
        <time>2019-01-20T12:17:28Z</time>
      </trkpt>
      <trkpt lat="48.18933" lon="7.26679">
        <ele>719</ele>
        <time>2019-01-20T12:19:51Z</time>
      </trkpt>
      <trkpt lat="48.1891" lon="7.26681">
        <ele>716</ele>
        <time>2019-01-20T12:20:21Z</time>
      </trkpt>
      <trkpt lat="48.18884" lon="7.26684">
        <ele>711</ele>
        <time>2019-01-20T12:20:38Z</time>
      </trkpt>
      <trkpt lat="48.18861" lon="7.26683">
        <ele>709</ele>
        <time>2019-01-20T12:21:03Z</time>
      </trkpt>
      <trkpt lat="48.18837" lon="7.26675">
        <ele>706</ele>
        <time>2019-01-20T12:21:31Z</time>
      </trkpt>
      <trkpt lat="48.18825" lon="7.26645">
        <ele>706</ele>
        <time>2019-01-20T12:22:15Z</time>
      </trkpt>
      <trkpt lat="48.18814" lon="7.2662">
        <ele>705</ele>
        <time>2019-01-20T12:23:20Z</time>
      </trkpt>
      <trkpt lat="48.18804" lon="7.26594">
        <ele>704</ele>
        <time>2019-01-20T12:23:44Z</time>
      </trkpt>
      <trkpt lat="48.18779" lon="7.26561">
        <ele>696</ele>
        <time>2019-01-20T12:24:10Z</time>
      </trkpt>
      <trkpt lat="48.18758" lon="7.26536">
        <ele>688</ele>
        <time>2019-01-20T12:24:37Z</time>
      </trkpt>
      <trkpt lat="48.18746" lon="7.26521">
        <ele>684</ele>
        <time>2019-01-20T12:25:56Z</time>
      </trkpt>
      <trkpt lat="48.18729" lon="7.26494">
        <ele>677</ele>
        <time>2019-01-20T12:26:39Z</time>
      </trkpt>
      <trkpt lat="48.18728" lon="7.26465">
        <ele>675</ele>
        <time>2019-01-20T12:27:23Z</time>
      </trkpt>
      <trkpt lat="48.18725" lon="7.26425">
        <ele>672</ele>
        <time>2019-01-20T12:27:56Z</time>
      </trkpt>
      <trkpt lat="48.18721" lon="7.26389">
        <ele>670</ele>
        <time>2019-01-20T12:28:15Z</time>
      </trkpt>
      <trkpt lat="48.1872" lon="7.26348">
        <ele>668</ele>
        <time>2019-01-20T12:28:35Z</time>
      </trkpt>
      <trkpt lat="48.18717" lon="7.26316">
        <ele>667</ele>
        <time>2019-01-20T12:29:00Z</time>
      </trkpt>
      <trkpt lat="48.18709" lon="7.26281">
        <ele>664</ele>
        <time>2019-01-20T12:29:19Z</time>
      </trkpt>
      <trkpt lat="48.18697" lon="7.26238">
        <ele>660</ele>
        <time>2019-01-20T12:29:44Z</time>
      </trkpt>
      <trkpt lat="48.1868" lon="7.26212">
        <ele>655</ele>
        <time>2019-01-20T12:30:05Z</time>
      </trkpt>
      <trkpt lat="48.18665" lon="7.26189">
        <ele>650</ele>
        <time>2019-01-20T12:30:26Z</time>
      </trkpt>
      <trkpt lat="48.1865" lon="7.26165">
        <ele>647</ele>
        <time>2019-01-20T12:30:45Z</time>
      </trkpt>
      <trkpt lat="48.18633" lon="7.26138">
        <ele>645</ele>
        <time>2019-01-20T12:31:05Z</time>
      </trkpt>
      <trkpt lat="48.18616" lon="7.26105">
        <ele>644</ele>
        <time>2019-01-20T12:31:47Z</time>
      </trkpt>
      <trkpt lat="48.186" lon="7.26073">
        <ele>642</ele>
        <time>2019-01-20T12:32:08Z</time>
      </trkpt>
      <trkpt lat="48.186" lon="7.26027">
        <ele>645</ele>
        <time>2019-01-20T12:32:32Z</time>
      </trkpt>
      <trkpt lat="48.18588" lon="7.26008">
        <ele>643</ele>
        <time>2019-01-20T12:35:10Z</time>
      </trkpt>
      <trkpt lat="48.18565" lon="7.26025">
        <ele>643</ele>
        <time>2019-01-20T12:35:39Z</time>
      </trkpt>
      <trkpt lat="48.1855" lon="7.26067">
        <ele>641</ele>
        <time>2019-01-20T12:36:04Z</time>
      </trkpt>
      <trkpt lat="48.18544" lon="7.26099">
        <ele>639</ele>
        <time>2019-01-20T12:36:30Z</time>
      </trkpt>
      <trkpt lat="48.18538" lon="7.26132">
        <ele>636</ele>
        <time>2019-01-20T12:36:58Z</time>
      </trkpt>
      <trkpt lat="48.18532" lon="7.26165">
        <ele>632</ele>
        <time>2019-01-20T12:37:16Z</time>
      </trkpt>
      <trkpt lat="48.18525" lon="7.262">
        <ele>629</ele>
        <time>2019-01-20T12:37:36Z</time>
      </trkpt>
      <trkpt lat="48.18518" lon="7.2623">
        <ele>625</ele>
        <time>2019-01-20T12:37:55Z</time>
      </trkpt>
      <trkpt lat="48.1851" lon="7.26265">
        <ele>622</ele>
        <time>2019-01-20T12:38:14Z</time>
      </trkpt>
      <trkpt lat="48.18504" lon="7.26298">
        <ele>619</ele>
        <time>2019-01-20T12:38:36Z</time>
      </trkpt>
      <trkpt lat="48.18497" lon="7.2633">
        <ele>616</ele>
        <time>2019-01-20T12:39:01Z</time>
      </trkpt>
      <trkpt lat="48.18488" lon="7.26363">
        <ele>614</ele>
        <time>2019-01-20T12:39:21Z</time>
      </trkpt>
      <trkpt lat="48.18482" lon="7.26393">
        <ele>612</ele>
        <time>2019-01-20T12:39:45Z</time>
      </trkpt>
      <trkpt lat="48.1847" lon="7.26426">
        <ele>610</ele>
        <time>2019-01-20T12:40:00Z</time>
      </trkpt>
      <trkpt lat="48.1846" lon="7.26453">
        <ele>609</ele>
        <time>2019-01-20T12:40:26Z</time>
      </trkpt>
      <trkpt lat="48.18449" lon="7.26486">
        <ele>607</ele>
        <time>2019-01-20T12:40:43Z</time>
      </trkpt>
      <trkpt lat="48.18437" lon="7.26513">
        <ele>605</ele>
        <time>2019-01-20T12:41:00Z</time>
      </trkpt>
      <trkpt lat="48.18431" lon="7.26542">
        <ele>602</ele>
        <time>2019-01-20T12:41:22Z</time>
      </trkpt>
      <trkpt lat="48.18436" lon="7.26579">
        <ele>597</ele>
        <time>2019-01-20T12:41:50Z</time>
      </trkpt>
      <trkpt lat="48.18438" lon="7.26613">
        <ele>594</ele>
        <time>2019-01-20T12:42:10Z</time>
      </trkpt>
      <trkpt lat="48.1844" lon="7.26647">
        <ele>590</ele>
        <time>2019-01-20T12:42:30Z</time>
      </trkpt>
      <trkpt lat="48.18438" lon="7.2668">
        <ele>587</ele>
        <time>2019-01-20T12:42:51Z</time>
      </trkpt>
      <trkpt lat="48.18434" lon="7.26714">
        <ele>585</ele>
        <time>2019-01-20T12:43:14Z</time>
      </trkpt>
      <trkpt lat="48.18429" lon="7.26745">
        <ele>582</ele>
        <time>2019-01-20T12:43:32Z</time>
      </trkpt>
      <trkpt lat="48.18424" lon="7.26777">
        <ele>579</ele>
        <time>2019-01-20T12:43:53Z</time>
      </trkpt>
      <trkpt lat="48.18418" lon="7.26808">
        <ele>575</ele>
        <time>2019-01-20T12:44:12Z</time>
      </trkpt>
      <trkpt lat="48.18407" lon="7.26839">
        <ele>575</ele>
        <time>2019-01-20T12:44:27Z</time>
      </trkpt>
      <trkpt lat="48.18393" lon="7.26865">
        <ele>576</ele>
        <time>2019-01-20T12:44:45Z</time>
      </trkpt>
      <trkpt lat="48.18382" lon="7.26896">
        <ele>576</ele>
        <time>2019-01-20T12:46:40Z</time>
      </trkpt>
      <trkpt lat="48.18373" lon="7.26931">
        <ele>575</ele>
        <time>2019-01-20T12:47:00Z</time>
      </trkpt>
      <trkpt lat="48.18363" lon="7.26963">
        <ele>574</ele>
        <time>2019-01-20T12:47:20Z</time>
      </trkpt>
      <trkpt lat="48.18356" lon="7.26995">
        <ele>573</ele>
        <time>2019-01-20T12:47:40Z</time>
      </trkpt>
      <trkpt lat="48.18348" lon="7.27031">
        <ele>571</ele>
        <time>2019-01-20T12:48:04Z</time>
      </trkpt>
      <trkpt lat="48.18349" lon="7.27066">
        <ele>568</ele>
        <time>2019-01-20T12:48:33Z</time>
      </trkpt>
      <trkpt lat="48.18348" lon="7.27104">
        <ele>564</ele>
        <time>2019-01-20T12:49:29Z</time>
      </trkpt>
      <trkpt lat="48.18343" lon="7.27141">
        <ele>558</ele>
        <time>2019-01-20T12:49:51Z</time>
      </trkpt>
      <trkpt lat="48.18333" lon="7.2718">
        <ele>551</ele>
        <time>2019-01-20T12:52:11Z</time>
      </trkpt>
      <trkpt lat="48.18321" lon="7.27214">
        <ele>548</ele>
        <time>2019-01-20T12:52:34Z</time>
      </trkpt>
      <trkpt lat="48.18303" lon="7.27237">
        <ele>545</ele>
        <time>2019-01-20T12:52:50Z</time>
      </trkpt>
      <trkpt lat="48.18278" lon="7.27249">
        <ele>543</ele>
        <time>2019-01-20T12:53:00Z</time>
      </trkpt>
      <trkpt lat="48.18254" lon="7.2726">
        <ele>542</ele>
        <time>2019-01-20T12:53:12Z</time>
      </trkpt>
      <trkpt lat="48.18229" lon="7.27277">
        <ele>542</ele>
        <time>2019-01-20T12:53:25Z</time>
      </trkpt>
      <trkpt lat="48.18215" lon="7.27292">
        <ele>542</ele>
        <time>2019-01-20T12:53:34Z</time>
      </trkpt>
      <trkpt lat="48.18201" lon="7.27317">
        <ele>539</ele>
        <time>2019-01-20T12:53:45Z</time>
      </trkpt>
      <trkpt lat="48.18189" lon="7.27344">
        <ele>535</ele>
        <time>2019-01-20T12:53:59Z</time>
      </trkpt>
      <trkpt lat="48.18176" lon="7.27372">
        <ele>532</ele>
        <time>2019-01-20T12:54:18Z</time>
      </trkpt>
      <trkpt lat="48.18162" lon="7.27394">
        <ele>528</ele>
        <time>2019-01-20T12:54:38Z</time>
      </trkpt>
      <trkpt lat="48.18144" lon="7.27416">
        <ele>529</ele>
        <time>2019-01-20T12:54:51Z</time>
      </trkpt>
      <trkpt lat="48.18126" lon="7.27442">
        <ele>530</ele>
        <time>2019-01-20T12:55:09Z</time>
      </trkpt>
      <trkpt lat="48.18108" lon="7.27463">
        <ele>529</ele>
        <time>2019-01-20T12:55:23Z</time>
      </trkpt>
      <trkpt lat="48.18091" lon="7.27483">
        <ele>525</ele>
        <time>2019-01-20T12:55:39Z</time>
      </trkpt>
      <trkpt lat="48.18072" lon="7.27506">
        <ele>521</ele>
        <time>2019-01-20T12:55:55Z</time>
      </trkpt>
      <trkpt lat="48.18052" lon="7.27533">
        <ele>518</ele>
        <time>2019-01-20T12:56:09Z</time>
      </trkpt>
      <trkpt lat="48.18036" lon="7.27555">
        <ele>514</ele>
        <time>2019-01-20T12:56:20Z</time>
      </trkpt>
      <trkpt lat="48.18017" lon="7.27585">
        <ele>508</ele>
        <time>2019-01-20T12:56:35Z</time>
      </trkpt>
      <trkpt lat="48.18011" lon="7.27618">
        <ele>503</ele>
        <time>2019-01-20T12:56:57Z</time>
      </trkpt>
      <trkpt lat="48.18003" lon="7.27651">
        <ele>496</ele>
        <time>2019-01-20T12:58:01Z</time>
      </trkpt>
      <trkpt lat="48.18005" lon="7.27687">
        <ele>492</ele>
        <time>2019-01-20T12:59:25Z</time>
      </trkpt>
      <trkpt lat="48.17987" lon="7.27687">
        <ele>495</ele>
        <time>2019-01-20T13:01:33Z</time>
      </trkpt>
      <trkpt lat="48.17982" lon="7.2773">
        <ele>493</ele>
        <time>2019-01-20T13:01:56Z</time>
      </trkpt>
      <trkpt lat="48.17977" lon="7.27767">
        <ele>491</ele>
        <time>2019-01-20T13:02:20Z</time>
      </trkpt>
      <trkpt lat="48.1797" lon="7.27802">
        <ele>491</ele>
        <time>2019-01-20T13:02:39Z</time>
      </trkpt>
      <trkpt lat="48.17954" lon="7.27821">
        <ele>493</ele>
        <time>2019-01-20T13:03:00Z</time>
      </trkpt>
      <trkpt lat="48.17938" lon="7.27839">
        <ele>495</ele>
        <time>2019-01-20T13:03:19Z</time>
      </trkpt>
      <trkpt lat="48.17916" lon="7.27856">
        <ele>497</ele>
        <time>2019-01-20T13:03:40Z</time>
      </trkpt>
      <trkpt lat="48.17895" lon="7.27873">
        <ele>498</ele>
        <time>2019-01-20T13:04:06Z</time>
      </trkpt>
      <trkpt lat="48.17873" lon="7.27885">
        <ele>498</ele>
        <time>2019-01-20T13:04:28Z</time>
      </trkpt>
      <trkpt lat="48.1785" lon="7.27894">
        <ele>499</ele>
        <time>2019-01-20T13:04:46Z</time>
      </trkpt>
      <trkpt lat="48.17828" lon="7.27907">
        <ele>499</ele>
        <time>2019-01-20T13:05:08Z</time>
      </trkpt>
      <trkpt lat="48.17806" lon="7.27919">
        <ele>500</ele>
        <time>2019-01-20T13:05:27Z</time>
      </trkpt>
      <trkpt lat="48.17789" lon="7.2793">
        <ele>501</ele>
        <time>2019-01-20T13:05:49Z</time>
      </trkpt>
      <trkpt lat="48.17769" lon="7.27952">
        <ele>498</ele>
        <time>2019-01-20T13:06:03Z</time>
      </trkpt>
      <trkpt lat="48.17752" lon="7.27975">
        <ele>494</ele>
        <time>2019-01-20T13:06:21Z</time>
      </trkpt>
      <trkpt lat="48.1773" lon="7.27998">
        <ele>487</ele>
        <time>2019-01-20T13:07:54Z</time>
      </trkpt>
      <trkpt lat="48.17719" lon="7.28023">
        <ele>480</ele>
        <time>2019-01-20T13:09:56Z</time>
      </trkpt>
      <trkpt lat="48.17706" lon="7.28054">
        <ele>471</ele>
        <time>2019-01-20T13:10:28Z</time>
      </trkpt>
      <trkpt lat="48.17696" lon="7.28097">
        <ele>460</ele>
        <time>2019-01-20T13:10:54Z</time>
      </trkpt>
      <trkpt lat="48.17686" lon="7.28123">
        <ele>454</ele>
        <time>2019-01-20T13:11:13Z</time>
      </trkpt>
      <trkpt lat="48.17669" lon="7.28146">
        <ele>447</ele>
        <time>2019-01-20T13:11:36Z</time>
      </trkpt>
      <trkpt lat="48.17649" lon="7.28164">
        <ele>445</ele>
        <time>2019-01-20T13:12:12Z</time>
      </trkpt>
      <trkpt lat="48.17634" lon="7.28153">
        <ele>449</ele>
        <time>2019-01-20T13:12:30Z</time>
      </trkpt>
      <trkpt lat="48.17608" lon="7.28163">
        <ele>450</ele>
        <time>2019-01-20T13:13:04Z</time>
      </trkpt>
      <trkpt lat="48.17593" lon="7.28142">
        <ele>455</ele>
        <time>2021-04-27T07:22:43Z</time>
      </trkpt>
      <trkpt lat="48.17581" lon="7.28132">
        <ele>459</ele>
        <time>2019-01-20T13:16:26Z</time>
      </trkpt>
      <trkpt lat="48.17568" lon="7.28173">
        <ele>457</ele>
        <time>2019-01-20T13:17:20Z</time>
      </trkpt>
      <trkpt lat="48.17566" lon="7.28218">
        <ele>449</ele>
        <time>2019-01-20T13:17:49Z</time>
      </trkpt>
      <trkpt lat="48.17559" lon="7.28254">
        <ele>446</ele>
        <time>2019-01-20T13:18:13Z</time>
      </trkpt>
      <trkpt lat="48.17537" lon="7.28294">
        <ele>447</ele>
        <time>2019-01-20T13:18:45Z</time>
      </trkpt>
      <trkpt lat="48.17517" lon="7.28323">
        <ele>444</ele>
        <time>2019-01-20T13:19:02Z</time>
      </trkpt>
      <trkpt lat="48.17501" lon="7.28352">
        <ele>438</ele>
        <time>2019-01-20T13:19:21Z</time>
      </trkpt>
      <trkpt lat="48.17484" lon="7.28381">
        <ele>437</ele>
        <time>2019-01-20T13:19:38Z</time>
      </trkpt>
      <trkpt lat="48.17466" lon="7.28413">
        <ele>433</ele>
        <time>2019-01-20T13:19:58Z</time>
      </trkpt>
      <trkpt lat="48.17453" lon="7.28435">
        <ele>429</ele>
        <time>2019-01-20T13:20:26Z</time>
      </trkpt>
      <trkpt lat="48.17438" lon="7.28465">
        <ele>423</ele>
        <time>2019-01-20T13:20:46Z</time>
      </trkpt>
      <trkpt lat="48.17422" lon="7.28494">
        <ele>413</ele>
        <time>2019-01-20T13:21:06Z</time>
      </trkpt>
      <trkpt lat="48.174" lon="7.28519">
        <ele>412</ele>
        <time>2019-01-20T13:21:22Z</time>
      </trkpt>
      <trkpt lat="48.17376" lon="7.28538">
        <ele>412</ele>
        <time>2019-01-20T13:22:15Z</time>
      </trkpt>
      <trkpt lat="48.17351" lon="7.28555">
        <ele>411</ele>
        <time>2019-01-20T13:22:27Z</time>
      </trkpt>
      <trkpt lat="48.17326" lon="7.28568">
        <ele>409</ele>
        <time>2019-01-20T13:22:43Z</time>
      </trkpt>
      <trkpt lat="48.17308" lon="7.28572">
        <ele>409</ele>
        <time>2019-01-20T13:22:59Z</time>
      </trkpt>
      <trkpt lat="48.17287" lon="7.28587">
        <ele>406</ele>
        <time>2019-01-20T13:23:18Z</time>
      </trkpt>
      <trkpt lat="48.17268" lon="7.28604">
        <ele>404</ele>
        <time>2019-01-20T13:23:39Z</time>
      </trkpt>
      <trkpt lat="48.17248" lon="7.28621">
        <ele>401</ele>
        <time>2019-01-20T13:23:58Z</time>
      </trkpt>
      <trkpt lat="48.17229" lon="7.28642">
        <ele>399</ele>
        <time>2019-01-20T13:24:20Z</time>
      </trkpt>
      <trkpt lat="48.1721" lon="7.2866">
        <ele>397</ele>
        <time>2019-01-20T13:24:41Z</time>
      </trkpt>
      <trkpt lat="48.17193" lon="7.28684">
        <ele>395</ele>
        <time>2019-01-20T13:25:06Z</time>
      </trkpt>
      <trkpt lat="48.17178" lon="7.2871">
        <ele>393</ele>
        <time>2019-01-20T13:25:28Z</time>
      </trkpt>
      <trkpt lat="48.17164" lon="7.28739">
        <ele>389</ele>
        <time>2019-01-20T13:25:55Z</time>
      </trkpt>
      <trkpt lat="48.17152" lon="7.28769">
        <ele>389</ele>
        <time>2019-01-20T13:26:18Z</time>
      </trkpt>
      <trkpt lat="48.17139" lon="7.288">
        <ele>389</ele>
        <time>2019-01-20T13:26:37Z</time>
      </trkpt>
      <trkpt lat="48.17128" lon="7.28825">
        <ele>387</ele>
        <time>2019-01-20T13:26:53Z</time>
      </trkpt>
      <trkpt lat="48.17112" lon="7.28849">
        <ele>385</ele>
        <time>2019-01-20T13:27:11Z</time>
      </trkpt>
      <trkpt lat="48.17104" lon="7.28881">
        <ele>380</ele>
        <time>2019-01-20T13:27:36Z</time>
      </trkpt>
      <trkpt lat="48.17107" lon="7.28914">
        <ele>375</ele>
        <time>2019-01-20T13:28:05Z</time>
      </trkpt>
      <trkpt lat="48.17097" lon="7.28937">
        <ele>372</ele>
        <time>2019-01-20T13:29:12Z</time>
      </trkpt>
      <trkpt lat="48.17077" lon="7.2897">
        <ele>367</ele>
        <time>2019-01-20T13:31:12Z</time>
      </trkpt>
      <trkpt lat="48.17063" lon="7.29">
        <ele>365</ele>
        <time>2019-01-20T13:31:44Z</time>
      </trkpt>
      <trkpt lat="48.17048" lon="7.29028">
        <ele>363</ele>
        <time>2019-01-20T13:32:37Z</time>
      </trkpt>
      <trkpt lat="48.17033" lon="7.29054">
        <ele>361</ele>
        <time>2019-01-20T13:33:09Z</time>
      </trkpt>
      <trkpt lat="48.1702" lon="7.29082">
        <ele>358</ele>
        <time>2019-01-20T13:33:31Z</time>
      </trkpt>
      <trkpt lat="48.17014" lon="7.29118">
        <ele>356</ele>
        <time>2019-01-20T13:33:57Z</time>
      </trkpt>
      <trkpt lat="48.17" lon="7.29155">
        <ele>352</ele>
        <time>2019-01-20T13:34:22Z</time>
      </trkpt>
      <trkpt lat="48.1699" lon="7.29187">
        <ele>349</ele>
        <time>2019-01-20T13:34:41Z</time>
      </trkpt>
      <trkpt lat="48.16974" lon="7.29228">
        <ele>344</ele>
        <time>2019-01-20T13:35:36Z</time>
      </trkpt>
      <trkpt lat="48.16957" lon="7.2926">
        <ele>341</ele>
        <time>2019-01-20T13:35:55Z</time>
      </trkpt>
      <trkpt lat="48.16939" lon="7.29285">
        <ele>340</ele>
        <time>2019-01-20T13:36:14Z</time>
      </trkpt>
      <trkpt lat="48.16919" lon="7.29303">
        <ele>338</ele>
        <time>2019-01-20T13:36:35Z</time>
      </trkpt>
      <trkpt lat="48.16899" lon="7.29321">
        <ele>336</ele>
        <time>2019-01-20T13:36:53Z</time>
      </trkpt>
      <trkpt lat="48.16876" lon="7.29334">
        <ele>333</ele>
        <time>2019-01-20T13:37:25Z</time>
      </trkpt>
      <trkpt lat="48.16855" lon="7.29336">
        <ele>331</ele>
        <time>2019-01-20T13:38:43Z</time>
      </trkpt>
      <trkpt lat="48.16831" lon="7.29336">
        <ele>329</ele>
        <time>2019-01-20T13:39:01Z</time>
      </trkpt>
      <trkpt lat="48.16811" lon="7.29353">
        <ele>326</ele>
        <time>2019-01-20T13:39:18Z</time>
      </trkpt>
      <trkpt lat="48.16794" lon="7.29378">
        <ele>324</ele>
        <time>2019-01-20T13:39:27Z</time>
      </trkpt>
      <trkpt lat="48.16779" lon="7.29405">
        <ele>322</ele>
        <time>2019-01-20T13:39:49Z</time>
      </trkpt>
      <trkpt lat="48.16758" lon="7.29422">
        <ele>320</ele>
        <time>2019-01-20T13:40:14Z</time>
      </trkpt>
      <trkpt lat="48.16743" lon="7.29449">
        <ele>318</ele>
        <time>2019-01-20T13:40:35Z</time>
      </trkpt>
      <trkpt lat="48.16734" lon="7.29469">
        <ele>317</ele>
        <time>2019-01-20T13:42:28Z</time>
      </trkpt>
      <trkpt lat="48.16725" lon="7.29512">
        <ele>315</ele>
        <time>2019-01-20T13:43:40Z</time>
      </trkpt>
      <trkpt lat="48.16722" lon="7.29543">
        <ele>313</ele>
        <time>2019-01-20T13:44:05Z</time>
      </trkpt>
      <trkpt lat="48.16721" lon="7.29578">
        <ele>312</ele>
        <time>2019-01-20T13:44:50Z</time>
      </trkpt>
      <trkpt lat="48.16722" lon="7.29615">
        <ele>311</ele>
        <time>2019-01-20T13:45:28Z</time>
      </trkpt>
      <trkpt lat="48.16717" lon="7.29646">
        <ele>310</ele>
        <time>2019-01-20T13:46:01Z</time>
      </trkpt>
      <trkpt lat="48.16712" lon="7.29682">
        <ele>309</ele>
        <time>2019-01-20T13:46:30Z</time>
      </trkpt>
      <trkpt lat="48.16705" lon="7.29714">
        <ele>307</ele>
        <time>2019-01-20T13:47:15Z</time>
      </trkpt>
      <trkpt lat="48.16691" lon="7.29745">
        <ele>306</ele>
        <time>2019-01-20T13:47:42Z</time>
      </trkpt>
      <trkpt lat="48.16679" lon="7.29793">
        <ele>304</ele>
        <time>2019-01-20T13:48:16Z</time>
      </trkpt>
      <trkpt lat="48.16668" lon="7.29833">
        <ele>303</ele>
        <time>2021-04-27T07:28:03Z</time>
      </trkpt>
      <trkpt lat="48.16656" lon="7.29877">
        <ele>300</ele>
        <time>2021-04-27T07:28:08Z</time>
      </trkpt>
      <trkpt lat="48.16642" lon="7.2992">
        <ele>296</ele>
        <time>2021-04-27T07:28:13Z</time>
      </trkpt>
      <trkpt lat="48.16661" lon="7.29846">
        <ele>302</ele>
        <time>2021-04-27T07:28:18Z</time>
      </trkpt>
      <trkpt lat="48.16674" lon="7.29794">
        <ele>304</ele>
        <time>2021-04-27T07:28:23Z</time>
      </trkpt>
      <trkpt lat="48.16691" lon="7.29753">
        <ele>306</ele>
        <time>2019-01-20T13:50:19Z</time>
      </trkpt>
      <trkpt lat="48.16704" lon="7.29722">
        <ele>307</ele>
        <time>2019-01-20T13:50:46Z</time>
      </trkpt>
      <trkpt lat="48.16712" lon="7.29694">
        <ele>308</ele>
        <time>2019-01-20T13:51:10Z</time>
      </trkpt>
      <trkpt lat="48.16718" lon="7.2966">
        <ele>310</ele>
        <time>2019-01-20T13:51:42Z</time>
      </trkpt>
      <trkpt lat="48.16723" lon="7.29626">
        <ele>311</ele>
        <time>2019-01-20T13:52:04Z</time>
      </trkpt>
      <trkpt lat="48.16725" lon="7.2959">
        <ele>312</ele>
        <time>2019-01-20T13:52:33Z</time>
      </trkpt>
      <trkpt lat="48.16726" lon="7.29556">
        <ele>313</ele>
        <time>2019-01-20T13:53:08Z</time>
      </trkpt>
      <trkpt lat="48.16727" lon="7.29522">
        <ele>314</ele>
        <time>2019-01-20T13:53:22Z</time>
      </trkpt>
      <trkpt lat="48.16735" lon="7.29489">
        <ele>316</ele>
        <time>2019-01-20T13:53:49Z</time>
      </trkpt>
      <trkpt lat="48.16754" lon="7.29499">
        <ele>316</ele>
        <time>2019-01-20T13:54:40Z</time>
      </trkpt>
      <trkpt lat="48.1678" lon="7.29509">
        <ele>315</ele>
        <time>2019-01-20T13:54:56Z</time>
      </trkpt>
      <trkpt lat="48.16801" lon="7.29515">
        <ele>315</ele>
        <time>2019-01-20T13:55:14Z</time>
      </trkpt>
      <trkpt lat="48.16822" lon="7.29514">
        <ele>315</ele>
        <time>2019-01-20T13:55:35Z</time>
      </trkpt>
      <trkpt lat="48.16845" lon="7.29507">
        <ele>316</ele>
        <time>2019-01-20T13:56:00Z</time>
      </trkpt>
      <trkpt lat="48.16868" lon="7.29504">
        <ele>319</ele>
        <time>2019-01-20T13:56:18Z</time>
      </trkpt>
      <trkpt lat="48.16892" lon="7.29502">
        <ele>321</ele>
        <time>2019-01-20T13:56:45Z</time>
      </trkpt>
      <trkpt lat="48.16916" lon="7.29497">
        <ele>324</ele>
        <time>2019-01-20T13:57:13Z</time>
      </trkpt>
      <trkpt lat="48.16938" lon="7.29493">
        <ele>328</ele>
        <time>2019-01-20T13:57:40Z</time>
      </trkpt>
      <trkpt lat="48.16959" lon="7.29489">
        <ele>332</ele>
        <time>2019-01-20T13:58:09Z</time>
      </trkpt>
      <trkpt lat="48.16983" lon="7.29486">
        <ele>336</ele>
        <time>2019-01-20T13:59:13Z</time>
      </trkpt>
      <trkpt lat="48.17001" lon="7.29469">
        <ele>338</ele>
        <time>2019-01-20T13:59:43Z</time>
      </trkpt>
      <trkpt lat="48.17022" lon="7.29456">
        <ele>341</ele>
        <time>2019-01-20T14:00:18Z</time>
      </trkpt>
      <trkpt lat="48.17044" lon="7.2945">
        <ele>344</ele>
        <time>2019-01-20T14:00:47Z</time>
      </trkpt>
      <trkpt lat="48.17067" lon="7.2945">
        <ele>348</ele>
        <time>2019-01-20T14:01:12Z</time>
      </trkpt>
      <trkpt lat="48.17089" lon="7.29456">
        <ele>352</ele>
        <time>2019-01-20T14:01:35Z</time>
      </trkpt>
      <trkpt lat="48.17112" lon="7.29458">
        <ele>355</ele>
        <time>2019-01-20T14:02:02Z</time>
      </trkpt>
      <trkpt lat="48.17135" lon="7.29463">
        <ele>358</ele>
        <time>2019-01-20T14:02:22Z</time>
      </trkpt>
      <trkpt lat="48.17158" lon="7.29472">
        <ele>361</ele>
        <time>2019-01-20T14:02:44Z</time>
      </trkpt>
      <trkpt lat="48.17179" lon="7.29483">
        <ele>364</ele>
        <time>2019-01-20T14:03:08Z</time>
      </trkpt>
      <trkpt lat="48.17201" lon="7.29492">
        <ele>368</ele>
        <time>2019-01-20T14:03:33Z</time>
      </trkpt>
      <trkpt lat="48.17222" lon="7.29505">
        <ele>371</ele>
        <time>2019-01-20T14:03:59Z</time>
      </trkpt>
      <trkpt lat="48.17241" lon="7.29528">
        <ele>372</ele>
        <time>2019-01-20T14:04:22Z</time>
      </trkpt>
      <trkpt lat="48.17258" lon="7.29552">
        <ele>374</ele>
        <time>2019-01-20T14:04:51Z</time>
      </trkpt>
      <trkpt lat="48.17274" lon="7.29575">
        <ele>375</ele>
        <time>2019-01-20T14:05:17Z</time>
      </trkpt>
      <trkpt lat="48.17292" lon="7.29598">
        <ele>377</ele>
        <time>2019-01-20T14:05:41Z</time>
      </trkpt>
      <trkpt lat="48.17306" lon="7.29622">
        <ele>379</ele>
        <time>2019-01-20T14:06:04Z</time>
      </trkpt>
      <trkpt lat="48.17323" lon="7.29645">
        <ele>380</ele>
        <time>2019-01-20T14:06:29Z</time>
      </trkpt>
      <trkpt lat="48.17337" lon="7.29672">
        <ele>380</ele>
        <time>2019-01-20T14:06:50Z</time>
      </trkpt>
      <trkpt lat="48.17351" lon="7.29703">
        <ele>379</ele>
        <time>2019-01-20T14:07:13Z</time>
      </trkpt>
      <trkpt lat="48.17369" lon="7.29729">
        <ele>378</ele>
        <time>2019-01-20T14:07:33Z</time>
      </trkpt>
      <trkpt lat="48.17385" lon="7.29754">
        <ele>377</ele>
        <time>2019-01-20T14:07:51Z</time>
      </trkpt>
      <trkpt lat="48.17404" lon="7.29776">
        <ele>375</ele>
        <time>2019-01-20T14:08:12Z</time>
      </trkpt>
      <trkpt lat="48.17424" lon="7.29802">
        <ele>373</ele>
        <time>2019-01-20T14:08:33Z</time>
      </trkpt>
      <trkpt lat="48.1744" lon="7.29826">
        <ele>370</ele>
        <time>2019-01-20T14:08:55Z</time>
      </trkpt>
      <trkpt lat="48.17457" lon="7.29847">
        <ele>367</ele>
        <time>2019-01-20T14:09:17Z</time>
      </trkpt>
      <trkpt lat="48.17475" lon="7.29876">
        <ele>363</ele>
        <time>2019-01-20T14:09:38Z</time>
      </trkpt>
      <trkpt lat="48.17496" lon="7.29911">
        <ele>357</ele>
        <time>2019-01-20T14:10:25Z</time>
      </trkpt>
      <trkpt lat="48.17511" lon="7.29944">
        <ele>352</ele>
        <time>2019-01-20T14:10:44Z</time>
      </trkpt>
      <trkpt lat="48.17523" lon="7.29975">
        <ele>349</ele>
        <time>2019-01-20T14:11:06Z</time>
      </trkpt>
      <trkpt lat="48.17537" lon="7.30006">
        <ele>345</ele>
        <time>2019-01-20T14:11:28Z</time>
      </trkpt>
      <trkpt lat="48.17559" lon="7.30032">
        <ele>342</ele>
        <time>2019-01-20T14:11:53Z</time>
      </trkpt>
      <trkpt lat="48.17578" lon="7.30048">
        <ele>339</ele>
        <time>2019-01-20T14:12:14Z</time>
      </trkpt>
      <trkpt lat="48.17593" lon="7.30071">
        <ele>338</ele>
        <time>2019-01-20T14:15:39Z</time>
      </trkpt>
      <trkpt lat="48.17604" lon="7.30097">
        <ele>336</ele>
        <time>2019-01-20T14:16:00Z</time>
      </trkpt>
      <trkpt lat="48.17614" lon="7.30126">
        <ele>334</ele>
        <time>2019-01-20T14:16:23Z</time>
      </trkpt>
      <trkpt lat="48.17626" lon="7.30158">
        <ele>332</ele>
        <time>2019-01-20T14:16:45Z</time>
      </trkpt>
      <trkpt lat="48.17638" lon="7.30185">
        <ele>330</ele>
        <time>2019-01-20T14:17:06Z</time>
      </trkpt>
      <trkpt lat="48.17652" lon="7.30216">
        <ele>327</ele>
        <time>2019-01-20T14:17:27Z</time>
      </trkpt>
      <trkpt lat="48.17664" lon="7.30242">
        <ele>323</ele>
        <time>2019-01-20T14:17:48Z</time>
      </trkpt>
      <trkpt lat="48.1768" lon="7.30267">
        <ele>322</ele>
        <time>2019-01-20T14:18:07Z</time>
      </trkpt>
      <trkpt lat="48.17697" lon="7.3029">
        <ele>322</ele>
        <time>2019-01-20T14:18:29Z</time>
      </trkpt>
      <trkpt lat="48.17714" lon="7.30314">
        <ele>321</ele>
        <time>2019-01-20T14:18:49Z</time>
      </trkpt>
      <trkpt lat="48.1773" lon="7.30338">
        <ele>320</ele>
        <time>2019-01-20T14:19:10Z</time>
      </trkpt>
      <trkpt lat="48.17746" lon="7.30365">
        <ele>319</ele>
        <time>2019-01-20T14:19:30Z</time>
      </trkpt>
      <trkpt lat="48.17758" lon="7.30393">
        <ele>317</ele>
        <time>2019-01-20T14:19:51Z</time>
      </trkpt>
      <trkpt lat="48.1777" lon="7.30422">
        <ele>315</ele>
        <time>2019-01-20T14:20:12Z</time>
      </trkpt>
      <trkpt lat="48.17785" lon="7.3045">
        <ele>314</ele>
        <time>2019-01-20T14:20:34Z</time>
      </trkpt>
      <trkpt lat="48.17797" lon="7.30479">
        <ele>311</ele>
        <time>2019-01-20T14:20:55Z</time>
      </trkpt>
      <trkpt lat="48.17801" lon="7.30516">
        <ele>308</ele>
        <time>2019-01-20T14:21:16Z</time>
      </trkpt>
      <trkpt lat="48.17808" lon="7.30549">
        <ele>306</ele>
        <time>2019-01-20T14:21:37Z</time>
      </trkpt>
      <trkpt lat="48.17819" lon="7.30577">
        <ele>303</ele>
        <time>2019-01-20T14:21:56Z</time>
      </trkpt>
      <trkpt lat="48.17831" lon="7.3061">
        <ele>302</ele>
        <time>2019-01-20T14:22:19Z</time>
      </trkpt>
      <trkpt lat="48.17847" lon="7.30635">
        <ele>300</ele>
        <time>2019-01-20T14:22:44Z</time>
      </trkpt>
      <trkpt lat="48.17865" lon="7.30658">
        <ele>297</ele>
        <time>2019-01-20T14:23:08Z</time>
      </trkpt>
      <trkpt lat="48.17883" lon="7.30679">
        <ele>295</ele>
        <time>2019-01-20T14:23:31Z</time>
      </trkpt>
      <trkpt lat="48.17904" lon="7.30701">
        <ele>292</ele>
        <time>2019-01-20T14:23:54Z</time>
      </trkpt>
      <trkpt lat="48.1792" lon="7.30716">
        <ele>291</ele>
        <time>2019-01-20T14:24:22Z</time>
      </trkpt>
      <trkpt lat="48.17944" lon="7.30733">
        <ele>289</ele>
        <time>2019-01-20T14:24:44Z</time>
      </trkpt>
      <trkpt lat="48.17962" lon="7.3074">
        <ele>288</ele>
        <time>2019-01-20T14:25:06Z</time>
      </trkpt>
      <trkpt lat="48.17961" lon="7.3077">
        <ele>287</ele>
        <time>2019-01-20T14:25:29Z</time>
      </trkpt>
      <trkpt lat="48.17957" lon="7.30801">
        <ele>285</ele>
        <time>2019-01-20T14:25:53Z</time>
      </trkpt>
      <trkpt lat="48.17954" lon="7.30835">
        <ele>282</ele>
        <time>2019-01-20T14:26:13Z</time>
      </trkpt>
      <trkpt lat="48.17947" lon="7.30869">
        <ele>281</ele>
        <time>2019-01-20T14:26:33Z</time>
      </trkpt>
      <trkpt lat="48.17941" lon="7.30899">
        <ele>280</ele>
        <time>2019-01-20T14:26:58Z</time>
      </trkpt>
      <trkpt lat="48.17939" lon="7.30915">
        <ele>279</ele>
        <time>2021-04-27T07:35:28Z</time>
      </trkpt>
      <trkpt lat="48.17926" lon="7.30923">
        <ele>279</ele>
        <time>2019-01-20T14:27:32Z</time>
      </trkpt>
      <trkpt lat="48.1791" lon="7.30938">
        <ele>279</ele>
        <time>2019-01-20T14:28:00Z</time>
      </trkpt>
      <trkpt lat="48.17904" lon="7.30968">
        <ele>279</ele>
        <time>2019-01-20T14:28:33Z</time>
      </trkpt>
      <trkpt lat="48.17897" lon="7.30998">
        <ele>279</ele>
        <time>2019-01-20T14:28:59Z</time>
      </trkpt>
      <trkpt lat="48.17886" lon="7.3103">
        <ele>277</ele>
        <time>2019-01-20T14:29:30Z</time>
      </trkpt>
      <trkpt lat="48.17857" lon="7.31036">
        <ele>280</ele>
        <time>2019-01-20T14:30:15Z</time>
      </trkpt>
      <trkpt lat="48.17833" lon="7.31048">
        <ele>282</ele>
        <time>2019-01-20T14:31:23Z</time>
      </trkpt>
      <trkpt lat="48.17841" lon="7.31083">
        <ele>277</ele>
        <time>2019-01-20T14:32:06Z</time>
      </trkpt>
      <trkpt lat="48.17861" lon="7.31077">
        <ele>275</ele>
        <time>2021-04-27T07:36:13Z</time>
      </trkpt>
      <trkpt lat="48.17864" lon="7.31043">
        <ele>279</ele>
        <time>2019-01-20T14:32:42Z</time>
      </trkpt>
      <trkpt lat="48.17887" lon="7.31037">
        <ele>277</ele>
        <time>2019-01-20T14:34:22Z</time>
      </trkpt>
      <trkpt lat="48.17896" lon="7.3101">
        <ele>278</ele>
        <time>2019-01-20T14:35:40Z</time>
      </trkpt>
      <trkpt lat="48.17909" lon="7.30964">
        <ele>279</ele>
        <time>2019-01-20T14:36:17Z</time>
      </trkpt>
      <trkpt lat="48.1792" lon="7.30982">
        <ele>277</ele>
        <time>2019-01-20T14:37:05Z</time>
      </trkpt>
      <trkpt lat="48.1793" lon="7.31017">
        <ele>275</ele>
        <time>2019-01-20T14:52:08Z</time>
      </trkpt>
    </trkseg>
  </trk>
</gpx>